sensor_id;sensor_type;location;lat;lon;timestamp;P1;durP1;ratioP1;P2;durP2;ratioP2
4527;SDS011;62320;51.520;6.818;2022-12-10T00:06:02;51.97;;;19.47;;
4527;SDS011;62320;51.520;6.818;2022-12-10T00:16:06;49.87;;;18.33;;
4527;SDS011;62320;51.520;6.818;2022-12-10T00:26:10;48.47;;;16.48;;
4527;SDS011;62320;51.520;6.818;2022-12-10T00:36:16;52.40;;;17.10;;
4527;SDS011;62320;51.520;6.818;2022-12-10T00:46:22;41.53;;;15.77;;
4527;SDS011;62320;51.520;6.818;2022-12-10T00:56:25;51.28;;;16.98;;
4527;SDS011;62320;51.520;6.818;2022-12-10T01:06:32;49.72;;;17.70;;
4527;SDS011;62320;51.520;6.818;2022-12-10T01:16:41;49.43;;;17.80;;
4527;SDS011;62320;51.520;6.818;2022-12-10T01:26:42;53.47;;;17.03;;
4527;SDS011;62320;51.520;6.818;2022-12-10T01:36:44;51.40;;;17.80;;
4527;SDS011;62320;51.520;6.818;2022-12-10T01:46:48;57.93;;;19.23;;
4527;SDS011;62320;51.520;6.818;2022-12-10T01:56:58;52.60;;;18.50;;
4527;SDS011;62320;51.520;6.818;2022-12-10T02:07:05;53.35;;;17.73;;
4527;SDS011;62320;51.520;6.818;2022-12-10T02:17:24;47.07;;;13.63;;
4527;SDS011;62320;51.520;6.818;2022-12-10T02:27:37;56.97;;;19.70;;
4527;SDS011;62320;51.520;6.818;2022-12-10T02:37:48;42.92;;;14.65;;
4527;SDS011;62320;51.520;6.818;2022-12-10T02:47:53;50.70;;;19.02;;
4527;SDS011;62320;51.520;6.818;2022-12-10T02:58:13;54.60;;;19.97;;
4527;SDS011;62320;51.520;6.818;2022-12-10T03:08:33;60.13;;;19.40;;
4527;SDS011;62320;51.520;6.818;2022-12-10T03:18:40;53.22;;;18.15;;
4527;SDS011;62320;51.520;6.818;2022-12-10T03:28:45;45.93;;;15.03;;
4527;SDS011;62320;51.520;6.818;2022-12-10T03:38:51;41.60;;;14.57;;
4527;SDS011;62320;51.520;6.818;2022-12-10T03:48:53;46.47;;;17.13;;
4527;SDS011;62320;51.520;6.818;2022-12-10T03:58:58;53.63;;;17.33;;
4527;SDS011;62320;51.520;6.818;2022-12-10T04:08:59;45.40;;;16.93;;
4527;SDS011;62320;51.520;6.818;2022-12-10T04:19:02;44.85;;;16.63;;
4527;SDS011;62320;51.520;6.818;2022-12-10T04:29:08;50.25;;;17.40;;
4527;SDS011;62320;51.520;6.818;2022-12-10T04:39:10;51.83;;;17.03;;
4527;SDS011;62320;51.520;6.818;2022-12-10T04:49:13;39.17;;;14.93;;
4527;SDS011;62320;51.520;6.818;2022-12-10T04:59:15;52.70;;;16.33;;
4527;SDS011;62320;51.520;6.818;2022-12-10T05:09:17;50.33;;;17.53;;
4527;SDS011;62320;51.520;6.818;2022-12-10T05:19:18;54.67;;;17.97;;
4527;SDS011;62320;51.520;6.818;2022-12-10T05:29:24;54.78;;;19.08;;
4527;SDS011;62320;51.520;6.818;2022-12-10T05:39:26;46.00;;;18.03;;
4527;SDS011;62320;51.520;6.818;2022-12-10T05:49:27;51.03;;;18.20;;
4527;SDS011;62320;51.520;6.818;2022-12-10T05:59:28;52.13;;;18.85;;
4527;SDS011;62320;51.520;6.818;2022-12-10T06:09:30;50.33;;;18.38;;
4527;SDS011;62320;51.520;6.818;2022-12-10T06:19:31;51.73;;;19.33;;
4527;SDS011;62320;51.520;6.818;2022-12-10T06:29:33;73.30;;;22.67;;
4527;SDS011;62320;51.520;6.818;2022-12-10T06:39:34;62.65;;;19.00;;
4527;SDS011;62320;51.520;6.818;2022-12-10T06:49:35;62.97;;;20.43;;
4527;SDS011;62320;51.520;6.818;2022-12-10T06:59:37;57.20;;;20.07;;
4527;SDS011;62320;51.520;6.818;2022-12-10T07:09:38;59.92;;;20.77;;
4527;SDS011;62320;51.520;6.818;2022-12-10T07:19:40;57.50;;;19.93;;
4527;SDS011;62320;51.520;6.818;2022-12-10T07:29:41;61.13;;;20.43;;
4527;SDS011;62320;51.520;6.818;2022-12-10T07:39:44;34.42;;;13.02;;
4527;SDS011;62320;51.520;6.818;2022-12-10T07:49:45;65.03;;;22.15;;
4527;SDS011;62320;51.520;6.818;2022-12-10T07:59:47;67.70;;;21.13;;
4527;SDS011;62320;51.520;6.818;2022-12-10T08:09:48;57.83;;;20.03;;
4527;SDS011;62320;51.520;6.818;2022-12-10T08:19:50;71.53;;;21.98;;
4527;SDS011;62320;51.520;6.818;2022-12-10T08:29:51;77.33;;;25.00;;
4527;SDS011;62320;51.520;6.818;2022-12-10T08:39:53;79.73;;;25.40;;
4527;SDS011;62320;51.520;6.818;2022-12-10T08:49:54;78.50;;;23.70;;
4527;SDS011;62320;51.520;6.818;2022-12-10T08:59:55;75.80;;;22.73;;
4527;SDS011;62320;51.520;6.818;2022-12-10T09:09:57;81.07;;;26.37;;
4527;SDS011;62320;51.520;6.818;2022-12-10T09:19:58;67.53;;;22.83;;
4527;SDS011;62320;51.520;6.818;2022-12-10T09:30:00;82.88;;;25.35;;
4527;SDS011;62320;51.520;6.818;2022-12-10T09:40:01;69.67;;;23.83;;
4527;SDS011;62320;51.520;6.818;2022-12-10T10:00:37;62.53;;;20.92;;
4527;SDS011;62320;51.520;6.818;2022-12-10T10:10:40;76.87;;;24.57;;
4527;SDS011;62320;51.520;6.818;2022-12-10T10:20:42;58.87;;;20.77;;
4527;SDS011;62320;51.520;6.818;2022-12-10T10:30:44;66.60;;;20.48;;
4527;SDS011;62320;51.520;6.818;2022-12-10T10:40:49;49.83;;;18.57;;
4527;SDS011;62320;51.520;6.818;2022-12-10T10:50:55;52.93;;;19.23;;
4527;SDS011;62320;51.520;6.818;2022-12-10T11:01:08;46.60;;;15.60;;
4527;SDS011;62320;51.520;6.818;2022-12-10T11:11:20;59.45;;;19.15;;
4527;SDS011;62320;51.520;6.818;2022-12-10T11:21:26;48.83;;;16.77;;
4527;SDS011;62320;51.520;6.818;2022-12-10T11:41:43;49.72;;;18.67;;
4527;SDS011;62320;51.520;6.818;2022-12-10T11:51:54;56.90;;;20.63;;
4527;SDS011;62320;51.520;6.818;2022-12-10T12:02:41;40.13;;;15.50;;
4527;SDS011;62320;51.520;6.818;2022-12-10T12:22:58;41.13;;;16.40;;
4527;SDS011;62320;51.520;6.818;2022-12-10T12:33:09;53.40;;;18.00;;
4527;SDS011;62320;51.520;6.818;2022-12-10T12:43:19;50.40;;;17.50;;
4527;SDS011;62320;51.520;6.818;2022-12-10T12:53:27;56.97;;;19.88;;
4527;SDS011;62320;51.520;6.818;2022-12-10T13:03:41;44.60;;;16.33;;
4527;SDS011;62320;51.520;6.818;2022-12-10T13:24:11;39.47;;;15.88;;
4527;SDS011;62320;51.520;6.818;2022-12-10T14:05:43;49.53;;;18.13;;
4527;SDS011;62320;51.520;6.818;2022-12-10T14:16:12;57.57;;;19.13;;
4527;SDS011;62320;51.520;6.818;2022-12-10T14:26:17;54.00;;;17.83;;
4527;SDS011;62320;51.520;6.818;2022-12-10T14:36:31;51.77;;;17.83;;
4527;SDS011;62320;51.520;6.818;2022-12-10T14:46:35;53.27;;;18.77;;
4527;SDS011;62320;51.520;6.818;2022-12-10T14:56:37;57.65;;;19.58;;
4527;SDS011;62320;51.520;6.818;2022-12-10T15:06:39;67.30;;;21.30;;
4527;SDS011;62320;51.520;6.818;2022-12-10T15:16:41;45.07;;;16.17;;
4527;SDS011;62320;51.520;6.818;2022-12-10T15:26:49;49.83;;;15.02;;
4527;SDS011;62320;51.520;6.818;2022-12-10T15:36:55;49.55;;;15.98;;
4527;SDS011;62320;51.520;6.818;2022-12-10T15:47:19;55.60;;;18.20;;
4527;SDS011;62320;51.520;6.818;2022-12-10T15:57:22;49.47;;;18.43;;
4527;SDS011;62320;51.520;6.818;2022-12-10T16:07:24;51.67;;;17.02;;
4527;SDS011;62320;51.520;6.818;2022-12-10T16:17:29;51.07;;;17.27;;
4527;SDS011;62320;51.520;6.818;2022-12-10T16:27:31;52.17;;;17.93;;
4527;SDS011;62320;51.520;6.818;2022-12-10T16:37:33;54.28;;;18.25;;
4527;SDS011;62320;51.520;6.818;2022-12-10T16:47:35;55.60;;;18.73;;
4527;SDS011;62320;51.520;6.818;2022-12-10T16:57:36;59.00;;;17.97;;
4527;SDS011;62320;51.520;6.818;2022-12-10T17:07:41;56.88;;;17.83;;
4527;SDS011;62320;51.520;6.818;2022-12-10T17:17:42;55.38;;;16.60;;
4527;SDS011;62320;51.520;6.818;2022-12-10T17:27:44;55.53;;;17.40;;
4527;SDS011;62320;51.520;6.818;2022-12-10T17:37:45;65.33;;;18.40;;
4527;SDS011;62320;51.520;6.818;2022-12-10T17:47:48;58.40;;;17.48;;
4527;SDS011;62320;51.520;6.818;2022-12-10T17:57:49;50.33;;;15.10;;
4527;SDS011;62320;51.520;6.818;2022-12-10T18:07:52;44.37;;;14.17;;
4527;SDS011;62320;51.520;6.818;2022-12-10T18:17:53;58.30;;;18.17;;
4527;SDS011;62320;51.520;6.818;2022-12-10T18:27:55;52.20;;;16.63;;
4527;SDS011;62320;51.520;6.818;2022-12-10T18:38:00;57.37;;;17.03;;
4527;SDS011;62320;51.520;6.818;2022-12-10T18:48:02;56.95;;;18.13;;
4527;SDS011;62320;51.520;6.818;2022-12-10T18:58:03;49.28;;;14.80;;
4527;SDS011;62320;51.520;6.818;2022-12-10T19:08:08;56.40;;;16.90;;
4527;SDS011;62320;51.520;6.818;2022-12-10T19:18:13;54.50;;;17.73;;
4527;SDS011;62320;51.520;6.818;2022-12-10T19:28:16;55.60;;;17.70;;
4527;SDS011;62320;51.520;6.818;2022-12-10T19:38:20;48.13;;;16.00;;
4527;SDS011;62320;51.520;6.818;2022-12-10T19:48:21;49.57;;;16.87;;
4527;SDS011;62320;51.520;6.818;2022-12-10T19:58:22;50.20;;;16.13;;
4527;SDS011;62320;51.520;6.818;2022-12-10T20:08:24;57.50;;;17.93;;
4527;SDS011;62320;51.520;6.818;2022-12-10T20:18:25;44.63;;;14.83;;
4527;SDS011;62320;51.520;6.818;2022-12-10T20:28:27;53.42;;;15.57;;
4527;SDS011;62320;51.520;6.818;2022-12-10T20:38:28;46.42;;;13.30;;
4527;SDS011;62320;51.520;6.818;2022-12-10T20:48:30;58.03;;;16.90;;
4527;SDS011;62320;51.520;6.818;2022-12-10T20:58:31;59.90;;;16.80;;
4527;SDS011;62320;51.520;6.818;2022-12-10T21:08:33;48.97;;;14.82;;
4527;SDS011;62320;51.520;6.818;2022-12-10T21:18:34;54.50;;;15.37;;
4527;SDS011;62320;51.520;6.818;2022-12-10T21:28:35;66.50;;;16.53;;
4527;SDS011;62320;51.520;6.818;2022-12-10T21:38:37;47.92;;;13.20;;
4527;SDS011;62320;51.520;6.818;2022-12-10T21:48:39;61.07;;;17.00;;
4527;SDS011;62320;51.520;6.818;2022-12-10T21:58:40;49.53;;;15.70;;
4527;SDS011;62320;51.520;6.818;2022-12-10T22:08:41;52.20;;;14.88;;
4527;SDS011;62320;51.520;6.818;2022-12-10T22:18:43;56.50;;;14.00;;
4527;SDS011;62320;51.520;6.818;2022-12-10T22:28:45;36.33;;;10.63;;
4527;SDS011;62320;51.520;6.818;2022-12-10T22:38:47;46.90;;;14.03;;
4527;SDS011;62320;51.520;6.818;2022-12-10T22:48:48;37.13;;;10.73;;
4527;SDS011;62320;51.520;6.818;2022-12-10T22:58:51;28.33;;;9.53;;
4527;SDS011;62320;51.520;6.818;2022-12-10T23:08:53;31.30;;;9.10;;
4527;SDS011;62320;51.520;6.818;2022-12-10T23:18:55;35.22;;;9.98;;
4527;SDS011;62320;51.520;6.818;2022-12-10T23:28:56;37.83;;;10.20;;
4527;SDS011;62320;51.520;6.818;2022-12-10T23:38:58;40.23;;;12.53;;
4527;SDS011;62320;51.520;6.818;2022-12-10T23:48:59;40.22;;;12.48;;
4527;SDS011;62320;51.520;6.818;2022-12-10T23:59:00;38.35;;;11.77;;
